createdAt,value
2018-02-21T00:02:24.491Z,79.10
2018-02-21T00:04:51.822Z,79.30
2018-02-21T00:07:19.127Z,79.20
2018-02-21T00:09:46.492Z,79.20
2018-02-21T00:12:13.816Z,79.00
2018-02-21T00:14:41.118Z,79.10
2018-02-21T00:17:08.794Z,79.30
2018-02-21T00:19:36.470Z,79.30
2018-02-21T00:22:03.757Z,79.50
2018-02-21T00:24:31.084Z,79.50
2018-02-21T00:26:58.598Z,79.40
2018-02-21T00:29:25.916Z,79.70
2018-02-21T00:31:53.278Z,79.50
2018-02-21T00:34:20.639Z,79.50
2018-02-21T00:37:11.307Z,79.70
2018-02-21T00:39:38.615Z,79.60
2018-02-21T00:42:05.996Z,79.60
2018-02-21T00:44:35.382Z,79.60
2018-02-21T00:47:16.979Z,79.90
2018-02-21T00:49:44.783Z,79.90
2018-02-21T00:52:12.153Z,79.90
2018-02-21T00:54:39.515Z,79.90
2018-02-21T00:57:06.919Z,79.90
2018-02-21T00:59:34.726Z,79.90
2018-02-21T01:02:02.032Z,80.00
2018-02-21T01:04:29.775Z,79.90
2018-02-21T01:06:57.100Z,80.00
2018-02-21T01:09:24.448Z,79.80
2018-02-21T01:11:53.764Z,80.00
2018-02-21T01:14:21.124Z,80.00
2018-02-21T01:16:49.329Z,80.00
2018-02-21T01:19:17.016Z,80.00
2018-02-21T01:21:44.344Z,80.10
2018-02-21T01:24:11.698Z,80.00
2018-02-21T01:26:39.433Z,80.20
2018-02-21T01:29:06.783Z,80.30
2018-02-21T01:31:34.182Z,80.20
2018-02-21T01:34:01.934Z,79.90
2018-02-21T01:36:33.747Z,80.00
2018-02-21T01:39:01.084Z,80.20
2018-02-21T01:41:28.402Z,80.30
2018-02-21T01:43:55.774Z,80.30
2018-02-21T01:46:27.711Z,80.10
2018-02-21T01:48:55.048Z,79.90
2018-02-21T01:51:22.389Z,80.10
2018-02-21T01:53:49.803Z,80.30
2018-02-21T01:56:21.678Z,80.40
2018-02-21T01:58:49.151Z,80.40
2018-02-21T02:01:16.506Z,80.50
2018-02-21T02:03:43.811Z,80.40
2018-02-21T02:06:11.636Z,80.40
2018-02-21T02:08:38.943Z,80.40
2018-02-21T02:11:06.664Z,80.40
2018-02-21T02:13:33.981Z,80.40
2018-02-21T02:16:01.291Z,80.50
2018-02-21T02:18:28.649Z,80.60
2018-02-21T02:20:55.997Z,80.40
2018-02-21T02:23:23.336Z,80.40
2018-02-21T02:25:50.707Z,80.50
2018-02-21T02:28:18.062Z,80.60
2018-02-21T02:30:45.663Z,80.60
2018-02-21T02:33:13.070Z,80.60
2018-02-21T02:35:40.375Z,80.50
2018-02-21T02:38:07.719Z,80.50
2018-02-21T02:40:35.459Z,80.70
2018-02-21T02:43:02.781Z,80.70
2018-02-21T02:45:34.971Z,80.70
2018-02-21T02:48:02.392Z,80.40
2018-02-21T02:50:29.822Z,80.70
2018-02-21T02:52:57.618Z,80.60
2018-02-21T02:55:24.954Z,80.70
2018-02-21T02:57:52.268Z,80.80
2018-02-21T03:00:19.658Z,80.80
2018-02-21T03:02:47.426Z,80.80
2018-02-21T03:05:14.726Z,80.80
2018-02-21T03:07:42.126Z,80.90
2018-02-21T03:10:09.885Z,80.90
2018-02-21T03:12:37.301Z,80.90
2018-02-21T03:15:04.630Z,80.90
2018-02-21T03:17:32.009Z,80.80
2018-02-21T03:19:59.389Z,80.90
2018-02-21T03:22:26.683Z,80.90
2018-02-21T03:24:54.021Z,81.10
2018-02-21T03:27:21.820Z,80.90
2018-02-21T03:29:49.225Z,81.00
2018-02-21T03:32:21.783Z,80.90
2018-02-21T03:34:49.226Z,81.00
2018-02-21T03:37:18.687Z,81.00
2018-02-21T03:39:46.113Z,81.00
2018-02-21T03:42:13.468Z,81.00
2018-02-21T03:45:04.827Z,80.90
2018-02-21T03:47:36.175Z,81.00
2018-02-21T03:50:03.515Z,81.00
2018-02-21T03:52:31.287Z,81.10
2018-02-21T03:54:58.588Z,80.90
2018-02-21T03:57:25.891Z,80.90
2018-02-21T03:59:53.250Z,81.00
2018-02-21T04:02:20.698Z,81.10
2018-02-21T04:04:48.051Z,81.10
2018-02-21T04:07:23.804Z,81.30
2018-02-21T04:09:51.635Z,81.10
2018-02-21T04:12:19.075Z,81.40
2018-02-21T04:14:46.416Z,81.30
2018-02-21T04:17:13.773Z,81.10
2018-02-21T04:19:41.090Z,81.10
2018-02-21T04:22:08.451Z,81.30
2018-02-21T04:24:35.796Z,81.10
2018-02-21T04:27:03.547Z,81.10
2018-02-21T04:29:41.567Z,81.30
2018-02-21T04:32:08.921Z,81.10
2018-02-21T04:34:36.650Z,81.40
2018-02-21T04:37:04.015Z,81.30
2018-02-21T04:39:31.355Z,81.30
2018-02-21T04:41:58.722Z,81.30
2018-02-21T04:44:26.068Z,81.50
2018-02-21T04:46:53.431Z,81.40
2018-02-21T04:49:20.814Z,81.40
2018-02-21T04:51:48.118Z,80.90
2018-02-21T04:54:21.153Z,81.40
2018-02-21T04:56:49.746Z,81.70
2018-02-21T04:59:35.197Z,81.70
2018-02-21T05:02:02.604Z,81.60
2018-02-21T05:04:29.925Z,81.80
2018-02-21T05:06:57.688Z,81.80
2018-02-21T05:09:25.136Z,81.90
2018-02-21T05:11:52.534Z,82.00
2018-02-21T05:14:19.865Z,82.00
2018-02-21T05:16:47.579Z,82.20
2018-02-21T05:19:14.878Z,82.20
2018-02-21T05:21:42.261Z,82.30
2018-02-21T05:24:09.568Z,82.30
2018-02-21T05:26:36.897Z,82.40
2018-02-21T05:29:04.280Z,82.50
2018-02-21T05:31:31.607Z,82.60
2018-02-21T05:33:59.100Z,82.70
2018-02-21T05:36:26.428Z,82.60
2018-02-21T05:38:53.789Z,82.60
2018-02-21T05:41:21.157Z,82.70
2018-02-21T05:43:48.503Z,82.90
2018-02-21T05:46:15.936Z,82.60
2018-02-21T05:48:43.257Z,82.00
2018-02-21T05:51:10.585Z,81.60
2018-02-21T05:53:37.925Z,81.40
2018-02-21T05:56:05.254Z,81.90
2018-02-21T05:58:32.642Z,82.20
2018-02-21T06:00:59.949Z,82.30
2018-02-21T06:03:27.319Z,82.60
2018-02-21T06:05:55.707Z,82.80
2018-02-21T06:08:23.019Z,83.00
2018-02-21T06:10:50.308Z,83.10
2018-02-21T06:13:18.022Z,83.00
2018-02-21T06:15:45.717Z,83.40
2018-02-21T06:18:13.050Z,83.40
2018-02-21T06:20:40.741Z,82.80
2018-02-21T06:23:08.019Z,82.30
2018-02-21T06:25:42.337Z,82.10
2018-02-21T06:28:09.631Z,81.90
2018-02-21T06:30:37.379Z,81.90
2018-02-21T06:33:04.684Z,82.00
2018-02-21T06:35:35.937Z,82.00
2018-02-21T06:38:03.211Z,82.40
2018-02-21T06:40:30.498Z,82.80
2018-02-21T06:43:17.046Z,82.90
2018-02-21T06:45:44.330Z,83.10
2018-02-21T06:48:18.638Z,83.40
2018-02-21T06:50:45.958Z,83.40
2018-02-21T06:53:13.248Z,83.50
2018-02-21T06:55:40.551Z,83.60
2018-02-21T06:58:07.881Z,83.50
2018-02-21T07:00:35.217Z,83.70
2018-02-21T07:03:02.494Z,83.60
2018-02-21T07:05:30.273Z,83.80
2018-02-21T07:07:57.609Z,83.90
2018-02-21T07:10:24.881Z,84.00
2018-02-21T07:12:52.306Z,83.80
2018-02-21T07:15:19.632Z,83.80
2018-02-21T07:17:46.923Z,83.80
2018-02-21T07:20:14.229Z,84.10
2018-02-21T07:22:41.558Z,83.90
2018-02-21T07:25:08.830Z,83.90
2018-02-21T07:27:36.172Z,84.10
2018-02-21T07:30:03.507Z,84.00
2018-02-21T07:32:31.189Z,84.20
2018-02-21T07:34:58.902Z,84.30
2018-02-21T07:37:26.198Z,84.10
2018-02-21T07:39:53.545Z,84.30
2018-02-21T07:42:21.249Z,83.80
2018-02-21T07:44:48.563Z,83.80
2018-02-21T07:47:16.234Z,84.00
2018-02-21T07:49:43.521Z,83.90
2018-02-21T07:52:10.829Z,84.10
2018-02-21T07:54:38.158Z,84.00
2018-02-21T07:57:05.442Z,84.10
2018-02-21T07:59:33.161Z,84.10
2018-02-21T08:02:00.427Z,84.30
2018-02-21T08:04:27.777Z,84.40
2018-02-21T08:06:55.260Z,84.30
2018-02-21T08:09:22.963Z,84.20
2018-02-21T08:11:50.299Z,84.20
2018-02-21T08:14:24.684Z,84.20
2018-02-21T08:16:52.066Z,84.10
2018-02-21T08:19:19.747Z,84.10
2018-02-21T08:21:47.118Z,83.90
2018-02-21T08:24:14.430Z,84.00
2018-02-21T08:26:42.103Z,84.00
2018-02-21T08:29:09.389Z,84.00
2018-02-21T08:31:36.725Z,84.00
2018-02-21T08:34:04.011Z,84.00
2018-02-21T08:36:31.320Z,83.80
2018-02-21T08:38:58.649Z,84.50
2018-02-21T08:41:25.949Z,83.90
2018-02-21T08:43:53.253Z,85.20
2018-02-21T08:46:20.535Z,85.60
2018-02-21T08:48:47.841Z,85.60
2018-02-21T08:51:15.145Z,84.80
2018-02-21T08:53:42.482Z,84.80
2018-02-21T08:56:10.150Z,85.80
2018-02-21T08:58:45.411Z,84.30
2018-02-21T09:01:18.952Z,84.50
2018-02-21T09:03:46.289Z,84.70
2018-02-21T09:06:13.586Z,85.70
2018-02-21T09:08:40.862Z,86.80
2018-02-21T09:11:08.191Z,86.40
2018-02-21T09:13:35.475Z,82.90
2018-02-21T09:16:02.746Z,88.20
2018-02-21T09:18:30.026Z,83.70
2018-02-21T09:20:57.350Z,84.40
2018-02-21T09:23:24.680Z,83.70
2018-02-21T09:25:52.019Z,85.80
2018-02-21T09:28:19.332Z,87.10
2018-02-21T09:30:46.628Z,82.50
2018-02-21T09:33:13.969Z,83.30
2018-02-21T09:35:41.242Z,85.20
2018-02-21T09:38:20.010Z,80.50
2018-02-21T09:40:47.361Z,81.10
2018-02-21T09:43:14.639Z,85.20
2018-02-21T09:45:41.907Z,82.90
2018-02-21T09:48:09.216Z,83.40
2018-02-21T09:50:37.452Z,83.50
2018-02-21T09:53:05.184Z,80.50
2018-02-21T09:55:32.499Z,83.60
2018-02-21T09:57:59.822Z,82.30
2018-02-21T10:03:27.243Z,83.70
2018-02-21T10:06:05.479Z,80.20
2018-02-21T10:08:33.210Z,79.60
2018-02-21T10:11:00.520Z,78.40
2018-02-21T10:13:27.786Z,83.30
2018-02-21T10:15:55.509Z,81.40
2018-02-21T10:18:22.838Z,81.40
2018-02-21T10:20:50.138Z,76.60
2018-02-21T10:23:17.478Z,83.20
2018-02-21T10:25:44.754Z,82.10
2018-02-21T10:28:12.042Z,80.20
2018-02-21T10:30:39.374Z,78.00
2018-02-21T10:33:07.133Z,78.00
2018-02-21T10:35:34.850Z,78.50
2018-02-21T10:38:02.118Z,76.70
2018-02-21T10:40:29.435Z,78.70
2018-02-21T10:45:30.363Z,75.40
2018-02-21T10:47:58.077Z,77.20
2018-02-21T10:50:25.350Z,76.00
2018-02-21T10:52:53.615Z,77.20
2018-02-21T10:55:20.918Z,77.90
2018-02-21T10:57:48.606Z,77.50
2018-02-21T11:00:21.735Z,77.00
2018-02-21T11:02:49.025Z,76.00
2018-02-21T11:05:16.687Z,74.50
2018-02-21T11:07:44.370Z,75.20
2018-02-21T11:10:11.685Z,76.50
2018-02-21T11:12:38.987Z,76.20
2018-02-21T11:15:06.311Z,74.40
2018-02-21T11:17:34.016Z,74.30
2018-02-21T11:20:01.308Z,74.00
2018-02-21T11:22:28.643Z,72.90
2018-02-21T11:24:55.915Z,72.10
2018-02-21T11:27:23.224Z,72.90
2018-02-21T11:29:50.494Z,72.50
2018-02-21T11:32:17.776Z,72.30
2018-02-21T11:34:45.085Z,71.50
2018-02-21T11:37:12.470Z,71.90
2018-02-21T11:39:39.732Z,71.20
2018-02-21T11:42:07.069Z,71.50
2018-02-21T11:44:34.338Z,70.90
2018-02-21T11:47:01.611Z,71.50
2018-02-21T11:49:29.329Z,70.80
2018-02-21T11:51:56.589Z,70.60
2018-02-21T11:54:27.790Z,70.60
2018-02-21T11:56:55.087Z,70.60
2018-02-21T12:02:19.942Z,71.30
2018-02-21T12:04:48.082Z,71.10
2018-02-21T12:07:17.407Z,70.30
2018-02-21T12:09:44.696Z,69.80
2018-02-21T12:12:11.991Z,69.50
2018-02-21T12:14:39.270Z,70.10
2018-02-21T12:17:06.664Z,69.90
2018-02-21T12:19:33.957Z,68.70
2018-02-21T12:22:01.231Z,69.10
2018-02-21T12:24:28.543Z,69.80
2018-02-21T12:27:02.077Z,67.20
2018-02-21T12:29:29.488Z,67.30
2018-02-21T12:31:58.615Z,69.20
2018-02-21T12:34:25.921Z,66.60
2018-02-21T12:36:53.242Z,66.40
2018-02-21T12:39:26.266Z,66.20
2018-02-21T12:41:53.574Z,67.20
2018-02-21T12:44:20.857Z,66.80
2018-02-21T12:46:48.615Z,67.60
2018-02-21T12:49:16.320Z,66.80
2018-02-21T12:51:43.661Z,66.40
2018-02-21T12:54:11.001Z,65.90
2018-02-21T12:56:38.675Z,66.20
2018-02-21T12:59:05.964Z,66.40
2018-02-21T13:01:33.297Z,65.60
2018-02-21T13:04:00.599Z,65.70
2018-02-21T13:06:27.937Z,65.80
2018-02-21T13:09:00.905Z,65.70
2018-02-21T13:11:28.242Z,66.40
2018-02-21T13:13:55.554Z,66.10
2018-02-21T13:16:22.823Z,65.90
2018-02-21T13:18:50.574Z,65.30
2018-02-21T13:21:17.891Z,65.60
2018-02-21T13:23:45.178Z,65.60
2018-02-21T13:26:12.462Z,65.60
2018-02-21T13:28:39.786Z,66.50
2018-02-21T13:31:07.178Z,66.00
2018-02-21T13:33:34.462Z,66.20
2018-02-21T13:36:01.821Z,66.30
2018-02-21T13:38:29.098Z,66.60
2018-02-21T13:40:56.407Z,66.70
2018-02-21T13:43:23.710Z,67.00
2018-02-21T13:45:51.018Z,66.20
2018-02-21T13:48:18.333Z,66.70
2018-02-21T13:51:00.018Z,66.00
2018-02-21T13:53:27.745Z,65.80
2018-02-21T13:55:55.034Z,65.50
2018-02-21T13:58:27.751Z,66.10
2018-02-21T14:00:55.041Z,66.20
2018-02-21T14:03:22.382Z,65.70
2018-02-21T14:05:49.658Z,65.90
2018-02-21T14:08:16.951Z,66.00
2018-02-21T14:10:44.266Z,66.40
2018-02-21T14:13:11.567Z,66.30
2018-02-21T14:15:38.897Z,66.90
2018-02-21T14:18:06.598Z,66.80
2018-02-21T14:20:33.863Z,67.30
2018-02-21T14:23:01.241Z,65.90
2018-02-21T14:25:28.505Z,67.60
2018-02-21T14:27:55.791Z,67.40
2018-02-21T14:30:23.113Z,66.70
2018-02-21T14:32:50.463Z,67.20
2018-02-21T14:35:17.766Z,66.10
2018-02-21T14:37:45.039Z,66.00
2018-02-21T14:40:12.349Z,67.60
2018-02-21T14:42:40.060Z,68.10
2018-02-21T14:45:07.321Z,68.30
2018-02-21T14:47:34.635Z,67.70
2018-02-21T14:50:01.994Z,67.90
2018-02-21T14:52:29.273Z,67.40
2018-02-21T14:54:56.558Z,68.10
2018-02-21T14:57:23.853Z,68.50
2018-02-21T14:59:51.127Z,67.30
2018-02-21T15:02:18.496Z,67.10
2018-02-21T15:04:45.779Z,66.50
2018-02-21T15:07:13.091Z,67.00
2018-02-21T15:09:41.454Z,68.00
2018-02-21T15:12:08.761Z,68.10
2018-02-21T15:14:36.038Z,66.80
2018-02-21T15:17:03.723Z,68.50
2018-02-21T15:19:31.060Z,68.70
2018-02-21T15:21:58.736Z,69.20
2018-02-21T15:24:27.964Z,69.30
2018-02-21T15:26:55.299Z,68.40
2018-02-21T15:29:22.611Z,68.40
2018-02-21T15:31:49.911Z,69.00
2018-02-21T15:34:17.250Z,68.00
2018-02-21T15:36:44.553Z,68.50
2018-02-21T15:39:11.846Z,69.20
2018-02-21T15:41:39.523Z,69.40
2018-02-21T15:44:08.785Z,69.20
2018-02-21T15:46:36.236Z,69.40
2018-02-21T15:49:26.890Z,69.70
2018-02-21T15:51:59.846Z,70.30
2018-02-21T15:54:27.540Z,68.50
2018-02-21T15:56:54.854Z,68.80
2018-02-21T15:59:22.537Z,70.10
2018-02-21T16:01:49.847Z,70.30
2018-02-21T16:04:17.122Z,70.20
2018-02-21T16:06:44.444Z,68.70
2018-02-21T16:09:11.723Z,69.40
2018-02-21T16:11:39.068Z,70.20
2018-02-21T16:14:08.409Z,70.50
2018-02-21T16:16:35.715Z,70.30
2018-02-21T16:19:03.077Z,70.20
2018-02-21T16:21:30.457Z,70.90
2018-02-21T16:23:58.174Z,70.30
2018-02-21T16:26:25.494Z,70.70
2018-02-21T16:28:52.847Z,70.90
2018-02-21T16:31:25.107Z,70.50
2018-02-21T16:33:52.455Z,70.70
2018-02-21T16:36:20.307Z,70.90
2018-02-21T16:38:47.622Z,70.60
2018-02-21T16:41:14.998Z,71.00
2018-02-21T16:43:42.349Z,70.90
2018-02-21T16:46:09.720Z,70.60
2018-02-21T16:48:37.060Z,71.20
2018-02-21T16:51:04.666Z,71.20
2018-02-21T16:53:31.978Z,71.00
2018-02-21T16:56:07.286Z,70.60
2018-02-21T16:58:34.613Z,71.50
2018-02-21T17:01:02.311Z,71.40
2018-02-21T17:03:29.678Z,71.40
2018-02-21T17:05:56.994Z,71.50
2018-02-21T17:08:24.359Z,71.70
2018-02-21T17:10:51.645Z,71.70
2018-02-21T17:13:24.377Z,71.80
2018-02-21T17:15:52.055Z,71.70
2018-02-21T17:18:19.339Z,71.80
2018-02-21T17:20:46.660Z,71.20
2018-02-21T17:23:13.943Z,71.80
2018-02-21T17:25:41.314Z,71.60
2018-02-21T17:28:08.621Z,71.50
2018-02-21T17:33:53.571Z,71.90
2018-02-21T17:36:20.899Z,72.20
2018-02-21T17:38:48.203Z,71.30
2018-02-21T17:41:21.693Z,71.60
2018-02-21T17:43:49.484Z,72.00
2018-02-21T17:46:16.757Z,72.50
2018-02-21T17:48:44.055Z,72.10
2018-02-21T17:51:11.409Z,72.40
2018-02-21T17:53:38.737Z,72.30
2018-02-21T17:59:04.795Z,72.30
2018-02-21T18:01:32.093Z,72.30
2018-02-21T18:03:59.397Z,72.40
2018-02-21T18:06:26.693Z,72.30
2018-02-21T18:08:54.039Z,72.50
2018-02-21T18:11:21.747Z,72.40
2018-02-21T18:14:02.490Z,72.50
2018-02-21T18:16:29.769Z,72.50
2018-02-21T18:18:57.078Z,72.60
2018-02-21T18:21:29.962Z,72.70
2018-02-21T18:23:57.620Z,72.70
2018-02-21T18:26:25.297Z,72.90
2018-02-21T18:28:53.022Z,72.80
2018-02-21T18:31:20.309Z,72.80
2018-02-21T18:33:48.031Z,72.50
2018-02-21T18:36:15.347Z,72.90
2018-02-21T18:38:48.632Z,73.00
2018-02-21T18:41:15.942Z,73.00
2018-02-21T18:43:49.614Z,73.10
2018-02-21T18:46:16.940Z,73.00
2018-02-21T18:48:44.258Z,73.10
2018-02-21T18:51:11.530Z,73.00
2018-02-21T18:53:43.221Z,73.10
2018-02-21T18:56:15.336Z,73.10
2018-02-21T18:58:55.564Z,72.90
2018-02-21T19:01:22.832Z,72.90
2018-02-21T19:03:50.117Z,73.00
2018-02-21T19:06:17.796Z,73.00
2018-02-21T19:08:46.012Z,73.00
2018-02-21T19:11:21.909Z,73.00
2018-02-21T19:13:49.609Z,73.00
2018-02-21T19:16:16.910Z,72.90
2018-02-21T19:18:44.235Z,73.00
2018-02-21T19:21:11.502Z,73.00
2018-02-21T19:23:38.841Z,73.20
2018-02-21T19:26:06.143Z,73.40
2018-02-21T19:28:33.846Z,73.50
2018-02-21T19:31:02.066Z,73.50
2018-02-21T19:33:29.367Z,73.50
2018-02-21T19:35:56.687Z,73.60
2018-02-21T19:38:24.448Z,73.70
2018-02-21T19:40:51.697Z,73.70
2018-02-21T19:43:30.112Z,73.70
2018-02-21T19:45:57.413Z,73.60
2018-02-21T19:48:38.065Z,73.90
2018-02-21T19:51:05.977Z,73.90
2018-02-21T19:53:49.846Z,74.00
2018-02-21T19:56:27.738Z,74.10
2018-02-21T19:58:55.028Z,74.10
2018-02-21T20:01:22.415Z,74.00
2018-02-21T20:03:49.768Z,74.00
2018-02-21T20:06:33.928Z,74.20
2018-02-21T20:09:03.218Z,74.20
2018-02-21T20:11:30.528Z,74.10
2018-02-21T20:14:04.306Z,74.20
2018-02-21T20:16:45.101Z,74.20
2018-02-21T20:19:12.818Z,74.20
2018-02-21T20:21:40.099Z,74.30
2018-02-21T20:24:07.802Z,74.30
2018-02-21T20:26:35.168Z,74.30
2018-02-21T20:29:10.710Z,74.30
2018-02-21T20:31:38.041Z,74.30
2018-02-21T20:34:05.714Z,74.20
2018-02-21T20:36:32.998Z,74.30
2018-02-21T20:39:04.399Z,74.40
2018-02-21T20:41:32.094Z,74.60
2018-02-21T20:43:59.447Z,74.50
2018-02-21T20:46:26.751Z,74.60
2018-02-21T20:48:59.064Z,74.70
2018-02-21T20:51:26.372Z,74.70
2018-02-21T20:56:51.346Z,74.50
2018-02-21T20:59:18.629Z,74.80
2018-02-21T21:01:45.926Z,75.00
2018-02-21T21:04:13.247Z,75.30
2018-02-21T21:06:40.529Z,75.30
2018-02-21T21:09:08.257Z,75.30
2018-02-21T21:11:35.545Z,75.30
2018-02-21T21:14:07.317Z,75.30
2018-02-21T21:16:35.047Z,75.40
2018-02-21T21:19:06.644Z,75.50
2018-02-21T21:21:33.934Z,75.60
2018-02-21T21:24:01.224Z,75.90
2018-02-21T21:26:28.542Z,75.50
2018-02-21T21:28:55.846Z,75.60
2018-02-21T21:31:23.568Z,75.90
2018-02-21T21:33:50.967Z,75.70
2018-02-21T21:36:18.196Z,75.90
2018-02-21T21:38:45.477Z,76.20
2018-02-21T21:41:13.167Z,76.00
2018-02-21T21:43:40.467Z,76.40
2018-02-21T21:46:07.775Z,76.30
2018-02-21T21:48:35.101Z,76.10
2018-02-21T21:51:02.811Z,76.20
2018-02-21T21:53:30.191Z,76.00
2018-02-21T21:55:57.482Z,76.10
2018-02-21T21:58:24.800Z,76.20
2018-02-21T22:00:52.097Z,76.10
2018-02-21T22:03:19.388Z,76.20
2018-02-21T22:05:46.698Z,76.50
2018-02-21T22:08:13.987Z,76.60
2018-02-21T22:10:52.325Z,76.40
2018-02-21T22:13:19.618Z,76.70
2018-02-21T22:15:46.916Z,76.70
2018-02-21T22:18:14.284Z,76.50
2018-02-21T22:20:41.591Z,76.80
2018-02-21T22:23:08.858Z,76.70
2018-02-21T22:25:36.170Z,76.80
2018-02-21T22:28:03.866Z,76.50
2018-02-21T22:30:31.126Z,76.90
2018-02-21T22:32:58.415Z,77.00
2018-02-21T22:35:25.678Z,77.00
2018-02-21T22:37:53.005Z,76.90
2018-02-21T22:40:20.306Z,77.20
2018-02-21T22:42:47.968Z,77.10
2018-02-21T22:45:15.676Z,77.10
2018-02-21T22:47:43.347Z,77.30
2018-02-21T22:50:10.651Z,77.40
2018-02-21T22:52:38.364Z,77.40
2018-02-21T22:55:07.560Z,77.40
2018-02-21T22:57:34.856Z,77.40
2018-02-21T23:00:02.574Z,77.30
2018-02-21T23:02:29.864Z,77.50
2018-02-21T23:04:57.140Z,77.50
2018-02-21T23:07:24.435Z,77.50
2018-02-21T23:09:51.775Z,77.20
2018-02-21T23:12:22.754Z,77.30
2018-02-21T23:14:50.212Z,77.50
2018-02-21T23:17:17.518Z,77.70
2018-02-21T23:19:44.871Z,77.70
2018-02-21T23:22:12.312Z,77.70
2018-02-21T23:24:39.620Z,77.80
2018-02-21T23:27:06.954Z,77.80
2018-02-21T23:29:34.237Z,77.90
2018-02-21T23:32:01.509Z,77.80
2018-02-21T23:37:23.382Z,77.80
2018-02-21T23:39:50.722Z,78.00
2018-02-21T23:42:18.389Z,77.90
2018-02-21T23:44:46.064Z,78.00
2018-02-21T23:47:13.436Z,77.90
2018-02-21T23:49:40.732Z,77.80
2018-02-21T23:52:08.011Z,78.10
2018-02-21T23:54:35.719Z,78.20
2018-02-21T23:57:02.996Z,78.20
2018-02-21T23:59:30.322Z,78.20
